Flight Track Log - Related Links

Times and Time Zones

All times are in EST time to prevent confusion due to time zone crossing. See the SWA1233 flight status page for this flight to view local times or setup timezone preferences in your user account.


Time Position Orientation Groundspeed Altitude Reporting Facility
EST Latitude Longitude Course Direction KTS MPH feet Rate Location/Type
Mon 02:36:05 PM 42.9500 -87.8833 114° Southeast 147 169 1,500  Level Milwaukee TRACON
Mon 02:37:05 PM 42.9333 -87.8333 114° Southeast 206 237 3,500 2,450 Climbing Milwaukee TRACON
Mon 02:38:05 PM 42.9000 -87.8833 228° Southwest 223 257 6,400 2,797 Climbing Milwaukee TRACON
Mon 02:39:33 PM 42.8672 -88.0056 250° West 237 273 10,400 2,640 Climbing Chicago Center
Mon 02:40:35 PM 42.7889 -88.0194 187° South 288 331 13,000 2,976 Climbing Chicago Center
Mon 02:41:38 PM 42.6872 -88.0083 175° South 301 346 16,600 2,976 Climbing Chicago Center
Mon 02:42:40 PM 42.5997 -87.9911 172° South 313 360 19,200 2,129 Climbing Chicago Center
Mon 02:43:42 PM 42.4983 -87.9592 167° South 363 418 21,000 1,984 Climbing Chicago Center
Mon 02:44:44 PM 42.3925 -87.9244 166° South 386 444 23,300 2,081 Climbing Chicago Center
Mon 02:45:46 PM 42.2758 -87.8908 168° South 407 468 25,300 1,935 Climbing Chicago Center
Mon 02:46:48 PM 42.1594 -87.8547 167° South 424 488 27,300 2,129 Climbing Chicago Center
Mon 02:47:50 PM 42.0161 -87.8114 167° South 437 503 29,700 1,887 Climbing Chicago Center
Mon 02:48:52 PM 41.8947 -87.7850 171° South 443 510 31,200 1,548 Climbing Chicago Center
Mon 02:49:54 PM 41.7719 -87.7861 180° South 442 509 32,900 1,500 Climbing Chicago Center
Mon 02:50:56 PM 41.6500 -87.7856 180° South 439 505 34,300 1,258 Climbing Chicago Center
Mon 02:51:58 PM 41.5242 -87.7856 180° South 447 514 35,500 1,152 Climbing Chicago Center
Mon 02:53:01 PM 41.3975 -87.7842 180° South 450 518 36,700 1,104 Climbing Chicago Center
Mon 02:54:03 PM 41.2686 -87.7825 179° South 453 521 37,800 1,016 Climbing Chicago Center
Mon 02:55:05 PM 41.1419 -87.7831 180° South 453 521 38,800 581 Climbing Chicago Center
Mon 02:56:07 PM 40.9914 -87.7822 180° South 453 521 39,000 97 Climbing Chicago Center
Mon 02:57:09 PM 40.8661 -87.7778 178° South 451 519 39,000  Level Chicago Center
Mon 02:58:11 PM 40.7422 -87.7778 180° South 446 513 39,000  Level Chicago Center
Mon 02:59:13 PM 40.6178 -87.7769 180° South 447 514 39,000  Level Chicago Center
Mon 03:00:16 PM 40.4936 -87.7756 180° South 448 516 39,000  Level Chicago Center
Mon 03:01:18 PM 40.3458 -87.7572 175° South 450 518 39,000  Level Chicago Center
Mon 03:02:20 PM 40.2203 -87.7236 168° South 460 529 39,000  Level Chicago Center
Mon 03:03:22 PM 40.0881 -87.6886 169° South 459 528 39,000  Level Chicago Center
Mon 03:04:25 PM 39.9658 -87.6539 168° South 454 522 39,000  Level Chicago Center
Mon 03:05:27 PM 39.8414 -87.6228 169° South 458 527 39,000  Level Chicago Center
Mon 03:06:29 PM 39.7183 -87.5900 168° South 454 522 39,000  Level Chicago Center
Mon 03:07:31 PM 39.5961 -87.5581 169° South 451 519 39,000  Level Chicago Center
Mon 03:08:33 PM 39.4483 -87.5192 169° South 455 524 39,000  Level Chicago Center
Mon 03:09:35 PM 39.3250 -87.4861 168° South 456 525 39,000  Level Chicago Center
Mon 03:10:37 PM 39.2000 -87.4550 169° South 460 529 39,000  Level Chicago Center
Mon 03:11:39 PM 39.0589 -87.4156 168° South 456 525 39,000  Level Chicago Center
Mon 03:13:09 PM 38.8875 -87.3722 169° South 459 528 39,000  Level Indianapolis Center
Mon 03:14:11 PM 38.7606 -87.3386 168° South 464 534 39,000  Level Indianapolis Center
Mon 03:15:13 PM 38.6078 -87.2997 169° South 467 537 39,000  Level Indianapolis Center
Mon 03:16:15 PM 38.4803 -87.2661 168° South 468 539 39,000  Level Indianapolis Center
Mon 03:17:17 PM 38.3536 -87.2342 169° South 469 540 39,000  Level Indianapolis Center
Mon 03:18:19 PM 38.2167 -87.1997 169° South 465 535 39,000  Level Indianapolis Center
Mon 03:19:21 PM 38.0797 -87.1642 168° South 465 535 39,000  Level Indianapolis Center
Mon 03:20:23 PM 37.9522 -87.1322 169° South 466 536 39,000  Level Indianapolis Center
Mon 03:21:25 PM 37.8253 -87.0997 169° South 466 536 39,000  Level Indianapolis Center
Mon 03:22:27 PM 37.6969 -87.0683 169° South 467 537 39,000  Level Indianapolis Center
Mon 03:23:30 PM 37.5689 -87.0361 169° South 468 539 39,000  Level Indianapolis Center
Mon 03:24:32 PM 37.4333 -87.0031 169° South 470 541 39,000  Level Indianapolis Center
Mon 03:25:34 PM 37.3036 -86.9703 169° South 471 542 39,000  Level Indianapolis Center
Mon 03:27:01 PM 37.1089 -86.9217 169° South 470 541 39,000  Level Memphis Center
Mon 03:28:03 PM 36.9786 -86.8900 169° South 471 542 39,000  Level Memphis Center
Mon 03:28:40 PM 36.8931 -86.8692 169° South 469 540 39,000  Level Indianapolis Center
Mon 03:29:42 PM 36.7639 -86.8369 169° South 468 539 39,000  Level Indianapolis Center
Mon 03:30:44 PM 36.6339 -86.8050 169° South 471 542 39,000  Level Indianapolis Center
Mon 03:31:46 PM 36.5017 -86.7728 169° South 475 547 39,000  Level Indianapolis Center
Mon 03:32:48 PM 36.3714 -86.7433 170° South 475 547 39,000  Level Indianapolis Center
Mon 03:33:50 PM 36.2333 -86.7089 169° South 475 547 39,000  Level Indianapolis Center
Mon 03:34:52 PM 36.1006 -86.6678 166° South 481 554 39,000  Level Indianapolis Center
Mon 03:35:54 PM 35.9694 -86.6019 158° South 500 575 39,000  Level Indianapolis Center
Mon 03:37:09 PM 35.7994 -86.5181 158° South 492 566 39,000  Level Indianapolis Center
Mon 03:38:11 PM 35.6714 -86.4544 158° South 492 566 39,000  Level Indianapolis Center
Mon 03:39:13 PM 35.5422 -86.3903 158° South 495 570 39,000  Level Indianapolis Center
Mon 03:40:27 PM 35.3919 -86.3175 158° South 493 567 39,000  Level Memphis Center
Mon 03:41:29 PM 35.2639 -86.2544 158° South 492 566 39,000  Level Memphis Center
Mon 03:42:30 PM 35.1319 -86.1897 158° South 488 562 39,000  Level Atlanta Center
Mon 03:43:30 PM 34.9911 -86.1253 159° South 493 567 39,000  Level Atlanta Center
Mon 03:44:30 PM 34.8794 -86.0669 157° South 484 557 39,000  Level Atlanta Center
Mon 03:45:30 PM 34.7511 -86.0056 159° South 489 563 39,000  Level Atlanta Center
Mon 03:46:30 PM 34.6228 -85.9419 158° South 494 568 39,000  Level Atlanta Center
Mon 03:47:30 PM 34.4964 -85.8811 158° South 494 568 39,000  Level Atlanta Center
Mon 03:48:30 PM 34.3700 -85.8231 159° South 494 568 39,000  Level Atlanta Center
Mon 03:49:30 PM 34.2331 -85.7600 159° South 482 555 39,000  Level Atlanta Center
Mon 03:50:30 PM 34.1128 -85.7022 158° South 477 549 39,000  Level Atlanta Center
Mon 03:51:30 PM 34.0008 -85.6525 160° South 477 549 39,000  Level Atlanta Center
Mon 03:52:30 PM 33.8764 -85.5950 159° South 472 543 39,000  Level Atlanta Center
Mon 03:53:30 PM 33.7517 -85.5353 158° South 472 543 39,000  Level Atlanta Center
Mon 03:54:30 PM 33.6272 -85.4783 159° South 472 543 39,000  Level Atlanta Center
Mon 03:55:30 PM 33.5047 -85.4189 158° South 472 543 39,000  Level Atlanta Center
Mon 03:56:30 PM 33.3822 -85.3647 160° South 485 558 39,000  Level Atlanta Center
Mon 03:57:30 PM 33.2556 -85.3033 158° South 480 552 39,000  Level Atlanta Center
Mon 03:58:30 PM 33.1267 -85.2469 160° South 488 562 39,000  Level Atlanta Center
Mon 03:59:30 PM 33.0061 -85.1906 159° South 480 552 39,000  Level Atlanta Center
Mon 04:00:30 PM 32.8647 -85.1344 162° South 480 552 39,000  Level Atlanta Center
Mon 04:01:30 PM 32.7461 -85.0983 166° South 480 552 39,000  Level Atlanta Center
Mon 04:02:30 PM 32.6150 -85.0547 164° South 477 549 39,000  Level Atlanta Center
Mon 04:03:30 PM 32.4881 -85.0117 164° South 477 549 39,000  Level Atlanta Center
Mon 04:04:30 PM 32.3567 -84.9683 164° South 482 555 39,000  Level Atlanta Center
Mon 04:05:30 PM 32.2256 -84.9300 166° South 482 555 39,000  Level Atlanta Center
Mon 04:06:30 PM 32.0944 -84.8847 164° South 488 562 39,000  Level Atlanta Center
Mon 04:09:08 PM 31.7517 -84.7689 164° South 489 563 39,000  Level Jacksonville Center
Mon 04:10:08 PM 31.6189 -84.7247 164° South 489 563 39,000  Level Jacksonville Center
Mon 04:11:08 PM 31.4900 -84.6808 164° South 489 563 39,000  Level Jacksonville Center
Mon 04:12:08 PM 31.3589 -84.6419 166° South 484 557 39,000  Level Jacksonville Center
Mon 04:13:08 PM 31.2317 -84.6419 180° South 479 551 39,000  Level Jacksonville Center
Mon 04:14:08 PM 31.1042 -84.6517 184° South 465 535 39,000  Level Jacksonville Center
Mon 04:15:08 PM 30.9767 -84.6589 183° South 460 529 39,000  Level Jacksonville Center
Mon 04:16:08 PM 30.8639 -84.6689 184° South 460 529 39,000  Level Jacksonville Center
Mon 04:17:08 PM 30.7175 -84.6783 183° South 460 529 39,000  Level Jacksonville Center
Mon 04:18:08 PM 30.5925 -84.6639 174° South 455 524 39,000  Level Jacksonville Center
Mon 04:19:08 PM 30.4811 -84.5606 141° Southeast 455 524 39,000  Level Jacksonville Center
Mon 04:20:08 PM 30.3739 -84.4553 140° Southeast 475 547 39,000 -100 Level Jacksonville Center
Mon 04:21:08 PM 30.2728 -84.3500 138° Southeast 484 557 38,800 -600 Descending Jacksonville Center
Mon 04:22:08 PM 30.1675 -84.2428 139° Southeast 496 571 37,800 -950 Descending Jacksonville Center
Mon 04:23:08 PM 30.0642 -84.1381 139° Southeast 502 578 36,900 -950 Descending Jacksonville Center
Mon 04:24:08 PM 29.9586 -84.0336 139° Southeast 502 578 35,900 -950 Descending Jacksonville Center
Mon 04:25:08 PM 29.8553 -83.9294 139° Southeast 502 578 35,000 -950 Descending Jacksonville Center
Mon 04:26:08 PM 29.7453 -83.8469 147° Southeast 491 565 34,000 -550 Descending Jacksonville Center
Mon 04:27:08 PM 29.6392 -83.7814 152° Southeast 486 559 33,900 -550 Descending Jacksonville Center
Mon 04:28:08 PM 29.5247 -83.7064 150° Southeast 475 547 32,900 -1,500 Descending Jacksonville Center
Mon 04:29:08 PM 29.4083 -83.6292 150° Southeast 475 547 30,900 -2,300 Descending Jacksonville Center
Mon 04:30:08 PM 29.2939 -83.5569 151° Southeast 475 547 28,300 -1,900 Descending Jacksonville Center
Mon 04:31:08 PM 29.1817 -83.4872 152° Southeast 469 540 27,100 -1,100 Descending Jacksonville Center
Mon 04:32:08 PM 29.0714 -83.4153 150° Southeast 463 533 26,100 -1,350 Descending Jacksonville Center
Mon 04:33:08 PM 28.9631 -83.3458 151° Southeast 451 519 24,400 -2,063 Descending Jacksonville Center
Mon 04:35:20 PM 28.7333 -83.2000 151° Southeast 416 479 19,500 -2,097 Descending Tampa TRACON
Mon 04:36:14 PM 28.6500 -83.1500 152° Southeast 401 461 17,900 -1,900 Descending Tampa TRACON
Mon 04:37:20 PM 28.5333 -83.0833 153° Southeast 384 442 15,700 -1,952 Descending Tampa TRACON
Mon 04:38:20 PM 28.4500 -83.0167 145° Southeast 369 425 13,800 -1,900 Descending Tampa TRACON
Mon 04:39:20 PM 28.3500 -82.9667 156° South 358 412 11,900 -1,500 Descending Tampa TRACON
Mon 04:40:20 PM 28.2667 -82.9167 152° Southeast 345 397 10,800 -1,158 Descending Tampa TRACON
Mon 04:41:14 PM 28.2000 -82.8667 147° Southeast 304 350 9,700 -1,300 Descending Tampa TRACON
Mon 04:42:20 PM 28.1500 -82.7833 124° Southeast 307 353 8,200 -1,400 Descending Tampa TRACON
Mon 04:43:14 PM 28.1000 -82.7167 130° Southeast 298 343 6,900 -1,421 Descending Tampa TRACON
Mon 04:44:14 PM 28.0333 -82.6500 139° Southeast 285 328 5,500 -947 Descending Tampa TRACON
Mon 04:45:08 PM 27.9833 -82.6167 150° Southeast 271 312 5,100 -250 Descending Tampa TRACON
Mon 04:46:14 PM 27.9167 -82.6167 180° South 225 259 5,000 -762 Descending Tampa TRACON
Mon 04:47:14 PM 27.8500 -82.6167 180° South 229 264 3,500 -1,053 Descending Tampa TRACON
Mon 04:48:08 PM 27.7833 -82.6167 180° South 220 253 3,000 -421 Descending Tampa TRACON
Mon 04:49:08 PM 27.7833 -82.5667 90° East 208 239 2,700 -190 Descending Tampa TRACON
Mon 04:50:14 PM 27.8333 -82.5500 16° North 176 203 2,600 -429 Descending Tampa TRACON
Mon 04:51:14 PM 27.8833 -82.5500 360° North 160 184 1,800 -800 Descending Tampa TRACON
Mon 04:52:14 PM 27.9167 -82.5500 360° North 136 157 1,000 -714 Descending Tampa TRACON
Mon 04:53:20 PM 27.9500 -82.5500 360° North 129 148 300 -636 Descending Tampa TRACON

Login

Don't have an account? Register now (free) for customized features, flight alerts, and more!